G.bellini — IKGF — position and weather

sailwx.info

Track history (hours):
 
Tides and Currents Weather Stations Pressure Air Temp Water Temp Dewpoint Dewpoint Depression Visibility Wind Speed Wind Dir Waves Ship Positions

G.bellini

Last reported at 2017-Aug-21 15:30 UTC. Time now 2017-Aug-21 15:33 UTC.
Position N 42°49' E 010°27'.

Length 72 m; draft 3.3 m.

Type: Ship. MMSI: 247041900.

Date/timePositionNaut miles runAvg speedWind from/ knotsBaromVisibWave heightAir tempDewpointWater temp
2017-Aug-21 15:30N 42°49' E 010°27'0 0.0
2017-Aug-21 12:55N 42°49' E 010°27'0 0.0
2017-Aug-20 17:50N 42°49' E 010°27'514.8
2017-Aug-20 17:30N 42°53' E 010°31'3 4.4
2017-Aug-20 16:45N 42°56' E 010°33'411.4
2017-Aug-20 16:25N 42°53' E 010°31'5 4.9
2017-Aug-20 15:29N 42°49' E 010°27'714.7
2017-Aug-20 14:59N 42°55' E 010°33'4 3.4
2017-Aug-20 13:52N 42°52' E 010°30'3 3.7
2017-Aug-20 12:55N 42°49' E 010°27'614.5
2017-Aug-20 12:30N 42°54' E 010°32'2 1.5
2017-Aug-20 11:18N 42°56' E 010°33'410.1
2017-Aug-20 10:56N 42°52' E 010°32'5 0.3
2017-Aug-19 17:49N 42°49' E 010°27'514.8
2017-Aug-19 17:30N 42°53' E 010°31'3 4.7
2017-Aug-19 16:50N 42°56' E 010°33'8 5.9
2017-Aug-19 15:31N 42°49' E 010°27'114.7
2017-Aug-19 15:27N 42°50' E 010°28'714.7
2017-Aug-19 15:00N 42°55' E 010°33'2 1.8
2017-Aug-19 14:00N 42°54' E 010°32'6 5.8
2017-Aug-19 12:55N 42°49' E 010°26'814.6
2017-Aug-19 12:24N 42°55' E 010°33'1 0.8
2017-Aug-19 11:12N 42°56' E 010°33'3 9.9
2017-Aug-19 10:55N 42°53' E 010°32'5 4.9
2017-Aug-19 09:49N 42°49' E 010°27'614.4
2017-Aug-19 09:22N 42°54' E 010°32'1 0.7
2017-Aug-19 08:23N 42°54' E 010°32'6 4.7
2017-Aug-19 07:03N 42°49' E 010°26'114.7
2017-Aug-19 07:00N 42°50' E 010°27'6 3.6
2017-Aug-19 05:25N 42°54' E 010°32'6 0.5
2017-Aug-18 17:49N 42°49' E 010°27'515.1
2017-Aug-18 17:31N 42°53' E 010°31'3 4.2
2017-Aug-18 16:44N 42°56' E 010°33'3 9.5
2017-Aug-18 16:26N 42°53' E 010°32'5 5.6
2017-Aug-18 15:30N 42°49' E 010°27'714.8
2017-Aug-18 15:00N 42°55' E 010°33'5 4.2
2017-Aug-18 13:46N 42°50' E 010°30'2 2.9
2017-Aug-18 12:55N 42°49' E 010°27'815.1
2017-Aug-18 12:24N 42°55' E 010°34'1 0.6
2017-Aug-18 11:13N 42°56' E 010°33'311.3
2017-Aug-18 10:56N 42°53' E 010°32'5 4.4
2017-Aug-18 09:47N 42°49' E 010°27'414.8
2017-Aug-18 09:30N 42°52' E 010°31'4 6.8
2017-Aug-18 08:56N 42°56' E 010°33'3 4.9
2017-Aug-18 08:23N 42°53' E 010°32'5 3.3
2017-Aug-18 06:58N 42°50' E 010°28'815.0
2017-Aug-18 06:28N 42°56' E 010°34'5 3.9
2017-Aug-18 05:16N 42°52' E 010°30'3 0.3
2017-Aug-17 16:12N 42°49' E 010°27'314.5
2017-Aug-17 16:00N 42°51' E 010°30'5 6.0
2017-Aug-17 15:08N 42°56' E 010°33'512.2
2017-Aug-17 14:44N 42°52' E 010°30'3 3.2
2017-Aug-17 13:45N 42°49' E 010°27'414.6
2017-Aug-17 13:30N 42°52' E 010°30'4 1.1
2017-Aug-17 09:46N 42°49' E 010°26'414.6
2017-Aug-17 09:30N 42°52' E 010°30'4 8.7
2017-Aug-17 09:00N 42°56' E 010°33'3 4.7
2017-Aug-17 08:20N 42°53' E 010°31'5 3.7
2017-Aug-17 07:01N 42°49' E 010°27'014.9
2017-Aug-17 07:00N 42°49' E 010°27'814.9
2017-Aug-17 06:29N 42°55' E 010°34'0 0.3
2017-Aug-17 04:39N 42°56' E 010°33'0 0.0
2017-Aug-17 04:24N 42°56' E 010°33'0 0.0
2017-Aug-17 01:15N 42°56' E 010°33'0 0.0
2017-Aug-17 00:48N 42°56' E 010°33'0 0.0
2017-Aug-17 00:30N 42°56' E 010°33'0 0.0
2017-Aug-16 19:12N 42°56' E 010°33'0 0.0
2017-Aug-16 19:00N 42°56' E 010°33'0 0.0
2017-Aug-16 16:52N 42°56' E 010°33'0 0.2
2017-Aug-16 15:23N 42°56' E 010°33'3 7.5
2017-Aug-16 14:58N 42°53' E 010°32'16 8.0
2017-Aug-16 12:59N 42°40' E 010°19'915.2
2017-Aug-16 12:23N 42°36' E 010°08'2 1.1
2017-Aug-16 10:56N 42°35' E 010°06'0 0.0
2017-Aug-16 09:16N 42°35' E 010°06'1412.8
2017-Aug-16 08:12N 42°41' E 010°23'9 7.3
2017-Aug-16 07:01N 42°49' E 010°27'015.6
2017-Aug-16 07:00N 42°49' E 010°27'8 6.1
2017-Aug-16 05:38N 42°56' E 010°34'513.4
2017-Aug-16 05:14N 42°52' E 010°30'3 0.2
2017-Aug-15 16:09N 42°50' E 010°27'0 0.1
2017-Aug-15 13:43N 42°50' E 010°27'315.1
2017-Aug-15 13:31N 42°52' E 010°30'3 0.9
2017-Aug-15 09:45N 42°49' E 010°27'414.7
2017-Aug-15 09:31N 42°52' E 010°30'5 5.4
2017-Aug-15 08:39N 42°56' E 010°33'1 9.1
2017-Aug-15 08:30N 42°55' E 010°34'8 5.2
2017-Aug-15 07:02N 42°49' E 010°26'014.9
2017-Aug-15 07:00N 42°49' E 010°27'814.9
2017-Aug-15 06:28N 42°56' E 010°34'1 0.7
2017-Aug-15 05:39N 42°56' E 010°33'411.3
2017-Aug-15 05:18N 42°52' E 010°31'4 0.4
2017-Aug-14 17:55N 42°49' E 010°27'714.8
2017-Aug-14 17:26N 42°55' E 010°33'1 2.0
2017-Aug-14 16:57N 42°56' E 010°33'8 5.2
2017-Aug-14 15:28N 42°50' E 010°27'0 0.0
2017-Aug-14 12:56N 42°49' E 010°27'8 4.7
2017-Aug-14 11:14N 42°56' E 010°33'310.6
2017-Aug-14 10:56N 42°53' E 010°32'5 4.4
2017-Aug-14 09:47N 42°49' E 010°27'414.5
2017-Aug-14 09:30N 42°52' E 010°31'4 4.9
2017-Aug-14 08:39N 42°56' E 010°33'310.7
2017-Aug-14 08:21N 42°53' E 010°32'5 3.9
2017-Aug-14 07:02N 42°49' E 010°27'014.4
2017-Aug-14 07:00N 42°50' E 010°27'714.8
2017-Aug-14 06:30N 42°55' E 010°33'1 0.7
2017-Aug-14 05:39N 42°56' E 010°33'1 8.8
2017-Aug-14 05:29N 42°55' E 010°33'8 0.6
2017-Aug-13 17:52N 42°49' E 010°26'514.8
2017-Aug-13 17:31N 42°53' E 010°31'3 4.0
2017-Aug-13 16:44N 42°56' E 010°33'2 8.8
2017-Aug-13 16:29N 42°54' E 010°32'6 6.8
2017-Aug-13 15:33N 42°49' E 010°26'114.3
2017-Aug-13 15:30N 42°49' E 010°27'714.7
2017-Aug-13 15:00N 42°55' E 010°33'1 1.0
2017-Aug-13 14:14N 42°56' E 010°33'3 9.8
2017-Aug-13 13:57N 42°53' E 010°32'5 5.0
2017-Aug-13 12:54N 42°49' E 010°27'714.7
2017-Aug-13 12:25N 42°55' E 010°33'1 1.3
2017-Aug-13 11:44N 42°56' E 010°33'0 0.0
2017-Aug-13 11:30N 42°56' E 010°33'2 4.6
2017-Aug-13 10:58N 42°53' E 010°32'6 5.8
2017-Aug-13 09:55N 42°49' E 010°26'614.5
2017-Aug-13 09:29N 42°54' E 010°32'2 3.2
2017-Aug-13 08:49N 42°56' E 010°33'2 5.7
2017-Aug-13 08:30N 42°54' E 010°33'6 4.2
2017-Aug-13 07:02N 42°49' E 010°27'014.5
2017-Aug-13 07:00N 42°50' E 010°27'8 5.7
2017-Aug-13 05:39N 42°56' E 010°33'612.3
2017-Aug-13 05:10N 42°51' E 010°29'3 0.3
2017-Aug-12 18:14N 42°49' E 010°26'414.5
2017-Aug-12 17:59N 42°52' E 010°30'3 0.4
2017-Aug-12 09:32N 42°54' E 010°32'  
Track history (hours):
 
Tides and Currents Weather Stations Pressure Air Temp Water Temp Dewpoint Dewpoint Depression Visibility Wind Speed Wind Dir Waves Ship Positions

G.bellini

Last reported at 2017-Aug-21 15:30 UTC. Time now 2017-Aug-21 15:33 UTC.
Position N 42°49' E 010°27'.

Length 72 m; draft 3.3 m.

Type: Ship. MMSI: 247041900.

Date/timePositionNaut miles runAvg speedWind from/ knotsBaromVisibWave heightAir tempDewpointWater temp
2017-Aug-21 15:30N 42°49' E 010°27'0 0.0
2017-Aug-21 12:55N 42°49' E 010°27'0 0.0
2017-Aug-20 17:50N 42°49' E 010°27'514.8
2017-Aug-20 17:30N 42°53' E 010°31'3 4.4
2017-Aug-20 16:45N 42°56' E 010°33'411.4
2017-Aug-20 16:25N 42°53' E 010°31'5 4.9
2017-Aug-20 15:29N 42°49' E 010°27'714.7
2017-Aug-20 14:59N 42°55' E 010°33'4 3.4
2017-Aug-20 13:52N 42°52' E 010°30'3 3.7
2017-Aug-20 12:55N 42°49' E 010°27'614.5
2017-Aug-20 12:30N 42°54' E 010°32'2 1.5
2017-Aug-20 11:18N 42°56' E 010°33'410.1
2017-Aug-20 10:56N 42°52' E 010°32'5 0.3
2017-Aug-19 17:49N 42°49' E 010°27'514.8
2017-Aug-19 17:30N 42°53' E 010°31'3 4.7
2017-Aug-19 16:50N 42°56' E 010°33'8 5.9
2017-Aug-19 15:31N 42°49' E 010°27'114.7
2017-Aug-19 15:27N 42°50' E 010°28'714.7
2017-Aug-19 15:00N 42°55' E 010°33'2 1.8
2017-Aug-19 14:00N 42°54' E 010°32'6 5.8
2017-Aug-19 12:55N 42°49' E 010°26'814.6
2017-Aug-19 12:24N 42°55' E 010°33'1 0.8
2017-Aug-19 11:12N 42°56' E 010°33'3 9.9
2017-Aug-19 10:55N 42°53' E 010°32'5 4.9
2017-Aug-19 09:49N 42°49' E 010°27'614.4
2017-Aug-19 09:22N 42°54' E 010°32'1 0.7
2017-Aug-19 08:23N 42°54' E 010°32'6 4.7
2017-Aug-19 07:03N 42°49' E 010°26'114.7
2017-Aug-19 07:00N 42°50' E 010°27'6 3.6
2017-Aug-19 05:25N 42°54' E 010°32'6 0.5
2017-Aug-18 17:49N 42°49' E 010°27'515.1
2017-Aug-18 17:31N 42°53' E 010°31'3 4.2
2017-Aug-18 16:44N 42°56' E 010°33'3 9.5
2017-Aug-18 16:26N 42°53' E 010°32'5 5.6
2017-Aug-18 15:30N 42°49' E 010°27'714.8
2017-Aug-18 15:00N 42°55' E 010°33'5 4.2
2017-Aug-18 13:46N 42°50' E 010°30'2 2.9
2017-Aug-18 12:55N 42°49' E 010°27'815.1
2017-Aug-18 12:24N 42°55' E 010°34'1 0.6
2017-Aug-18 11:13N 42°56' E 010°33'311.3
2017-Aug-18 10:56N 42°53' E 010°32'5 4.4
2017-Aug-18 09:47N 42°49' E 010°27'414.8
2017-Aug-18 09:30N 42°52' E 010°31'4 6.8
2017-Aug-18 08:56N 42°56' E 010°33'3 4.9
2017-Aug-18 08:23N 42°53' E 010°32'5 3.3
2017-Aug-18 06:58N 42°50' E 010°28'815.0
2017-Aug-18 06:28N 42°56' E 010°34'5 3.9
2017-Aug-18 05:16N 42°52' E 010°30'3 0.3
2017-Aug-17 16:12N 42°49' E 010°27'314.5
2017-Aug-17 16:00N 42°51' E 010°30'5 6.0
2017-Aug-17 15:08N 42°56' E 010°33'512.2
2017-Aug-17 14:44N 42°52' E 010°30'3 3.2
2017-Aug-17 13:45N 42°49' E 010°27'414.6
2017-Aug-17 13:30N 42°52' E 010°30'4 1.1
2017-Aug-17 09:46N 42°49' E 010°26'414.6
2017-Aug-17 09:30N 42°52' E 010°30'4 8.7
2017-Aug-17 09:00N 42°56' E 010°33'3 4.7
2017-Aug-17 08:20N 42°53' E 010°31'5 3.7
2017-Aug-17 07:01N 42°49' E 010°27'014.9
2017-Aug-17 07:00N 42°49' E 010°27'814.9
2017-Aug-17 06:29N 42°55' E 010°34'0 0.3
2017-Aug-17 04:39N 42°56' E 010°33'0 0.0
2017-Aug-17 04:24N 42°56' E 010°33'0 0.0
2017-Aug-17 01:15N 42°56' E 010°33'0 0.0
2017-Aug-17 00:48N 42°56' E 010°33'0 0.0
2017-Aug-17 00:30N 42°56' E 010°33'0 0.0
2017-Aug-16 19:12N 42°56' E 010°33'0 0.0
2017-Aug-16 19:00N 42°56' E 010°33'0 0.0
2017-Aug-16 16:52N 42°56' E 010°33'0 0.2
2017-Aug-16 15:23N 42°56' E 010°33'3 7.5
2017-Aug-16 14:58N 42°53' E 010°32'16 8.0
2017-Aug-16 12:59N 42°40' E 010°19'915.2
2017-Aug-16 12:23N 42°36' E 010°08'2 1.1
2017-Aug-16 10:56N 42°35' E 010°06'0 0.0
2017-Aug-16 09:16N 42°35' E 010°06'1412.8
2017-Aug-16 08:12N 42°41' E 010°23'9 7.3
2017-Aug-16 07:01N 42°49' E 010°27'015.6
2017-Aug-16 07:00N 42°49' E 010°27'8 6.1
2017-Aug-16 05:38N 42°56' E 010°34'513.4
2017-Aug-16 05:14N 42°52' E 010°30'3 0.2
2017-Aug-15 16:09N 42°50' E 010°27'0 0.1
2017-Aug-15 13:43N 42°50' E 010°27'315.1
2017-Aug-15 13:31N 42°52' E 010°30'3 0.9
2017-Aug-15 09:45N 42°49' E 010°27'414.7
2017-Aug-15 09:31N 42°52' E 010°30'5 5.4
2017-Aug-15 08:39N 42°56' E 010°33'1 9.1
2017-Aug-15 08:30N 42°55' E 010°34'8 5.2
2017-Aug-15 07:02N 42°49' E 010°26'014.9
2017-Aug-15 07:00N 42°49' E 010°27'814.9
2017-Aug-15 06:28N 42°56' E 010°34'1 0.7
2017-Aug-15 05:39N 42°56' E 010°33'411.3
2017-Aug-15 05:18N 42°52' E 010°31'4 0.4
2017-Aug-14 17:55N 42°49' E 010°27'714.8
2017-Aug-14 17:26N 42°55' E 010°33'1 2.0
2017-Aug-14 16:57N 42°56' E 010°33'8 5.2
2017-Aug-14 15:28N 42°50' E 010°27'0 0.0
2017-Aug-14 12:56N 42°49' E 010°27'8 4.7
2017-Aug-14 11:14N 42°56' E 010°33'310.6
2017-Aug-14 10:56N 42°53' E 010°32'5 4.4
2017-Aug-14 09:47N 42°49' E 010°27'414.5
2017-Aug-14 09:30N 42°52' E 010°31'4 4.9
2017-Aug-14 08:39N 42°56' E 010°33'310.7
2017-Aug-14 08:21N 42°53' E 010°32'5 3.9
2017-Aug-14 07:02N 42°49' E 010°27'014.4
2017-Aug-14 07:00N 42°50' E 010°27'714.8
2017-Aug-14 06:30N 42°55' E 010°33'1 0.7
2017-Aug-14 05:39N 42°56' E 010°33'1 8.8
2017-Aug-14 05:29N 42°55' E 010°33'8 0.6
2017-Aug-13 17:52N 42°49' E 010°26'514.8
2017-Aug-13 17:31N 42°53' E 010°31'3 4.0
2017-Aug-13 16:44N 42°56' E 010°33'2 8.8
2017-Aug-13 16:29N 42°54' E 010°32'6 6.8
2017-Aug-13 15:33N 42°49' E 010°26'114.3
2017-Aug-13 15:30N 42°49' E 010°27'714.7
2017-Aug-13 15:00N 42°55' E 010°33'1 1.0
2017-Aug-13 14:14N 42°56' E 010°33'3 9.8
2017-Aug-13 13:57N 42°53' E 010°32'5 5.0
2017-Aug-13 12:54N 42°49' E 010°27'714.7
2017-Aug-13 12:25N 42°55' E 010°33'1 1.3
2017-Aug-13 11:44N 42°56' E 010°33'0 0.0
2017-Aug-13 11:30N 42°56' E 010°33'2 4.6
2017-Aug-13 10:58N 42°53' E 010°32'6 5.8
2017-Aug-13 09:55N 42°49' E 010°26'614.5
2017-Aug-13 09:29N 42°54' E 010°32'2 3.2
2017-Aug-13 08:49N 42°56' E 010°33'2 5.7
2017-Aug-13 08:30N 42°54' E 010°33'6 4.2
2017-Aug-13 07:02N 42°49' E 010°27'014.5
2017-Aug-13 07:00N 42°50' E 010°27'8 5.7
2017-Aug-13 05:39N 42°56' E 010°33'612.3
2017-Aug-13 05:10N 42°51' E 010°29'3 0.3
2017-Aug-12 18:14N 42°49' E 010°26'414.5
2017-Aug-12 17:59N 42°52' E 010°30'3 0.4
2017-Aug-12 09:32N 42°54' E 010°32'  

Dump ship's entire track history